sensor_id;sensor_type;location;lat;lon;timestamp;temperature;humidity
25360;DHT22;13311;51.386;0.016;2023-01-26T00:02:59;8.30;99.90
25360;DHT22;13311;51.386;0.016;2023-01-26T00:07:59;8.20;99.90
25360;DHT22;13311;51.386;0.016;2023-01-26T00:13:00;8.00;99.90
25360;DHT22;13311;51.386;0.016;2023-01-26T00:18:02;8.00;99.90
25360;DHT22;13311;51.386;0.016;2023-01-26T00:23:02;8.00;99.90
25360;DHT22;13311;51.386;0.016;2023-01-26T00:28:03;7.80;99.90
25360;DHT22;13311;51.386;0.016;2023-01-26T00:33:04;7.80;99.90
25360;DHT22;13311;51.386;0.016;2023-01-26T00:38:05;8.00;99.90
25360;DHT22;13311;51.386;0.016;2023-01-26T00:43:06;8.00;99.90
25360;DHT22;13311;51.386;0.016;2023-01-26T00:48:07;8.00;99.90
25360;DHT22;13311;51.386;0.016;2023-01-26T00:53:08;7.90;99.90
25360;DHT22;13311;51.386;0.016;2023-01-26T00:58:09;7.90;99.90
25360;DHT22;13311;51.386;0.016;2023-01-26T01:03:10;7.70;99.90
25360;DHT22;13311;51.386;0.016;2023-01-26T01:08:11;7.70;99.90
25360;DHT22;13311;51.386;0.016;2023-01-26T01:13:12;7.70;99.90
25360;DHT22;13311;51.386;0.016;2023-01-26T01:18:12;7.70;99.90
25360;DHT22;13311;51.386;0.016;2023-01-26T01:23:13;7.80;99.90
25360;DHT22;13311;51.386;0.016;2023-01-26T01:28:14;7.80;99.90
25360;DHT22;13311;51.386;0.016;2023-01-26T01:33:15;7.90;99.90
25360;DHT22;13311;51.386;0.016;2023-01-26T01:38:16;7.70;99.90
25360;DHT22;13311;51.386;0.016;2023-01-26T01:43:16;7.50;99.90
25360;DHT22;13311;51.386;0.016;2023-01-26T01:53:39;7.40;99.90
25360;DHT22;13311;51.386;0.016;2023-01-26T01:58:42;7.40;99.90
25360;DHT22;13311;51.386;0.016;2023-01-26T02:03:44;7.30;99.90
25360;DHT22;13311;51.386;0.016;2023-01-26T02:08:51;7.20;99.90
25360;DHT22;13311;51.386;0.016;2023-01-26T02:13:55;7.20;99.90
25360;DHT22;13311;51.386;0.016;2023-01-26T02:18:58;7.20;99.90
25360;DHT22;13311;51.386;0.016;2023-01-26T02:29:11;7.30;99.90
25360;DHT22;13311;51.386;0.016;2023-01-26T02:34:12;7.20;99.90
25360;DHT22;13311;51.386;0.016;2023-01-26T02:44:26;7.30;99.90
25360;DHT22;13311;51.386;0.016;2023-01-26T02:49:27;7.10;99.90
25360;DHT22;13311;51.386;0.016;2023-01-26T02:54:46;7.10;99.90
25360;DHT22;13311;51.386;0.016;2023-01-26T03:00:28;7.00;99.90
25360;DHT22;13311;51.386;0.016;2023-01-26T03:05:30;6.90;99.90
25360;DHT22;13311;51.386;0.016;2023-01-26T03:10:32;6.90;99.90
25360;DHT22;13311;51.386;0.016;2023-01-26T03:15:33;6.80;99.90
25360;DHT22;13311;51.386;0.016;2023-01-26T03:20:42;6.70;99.90
25360;DHT22;13311;51.386;0.016;2023-01-26T03:26:01;6.60;99.90
25360;DHT22;13311;51.386;0.016;2023-01-26T03:31:21;6.60;99.90
25360;DHT22;13311;51.386;0.016;2023-01-26T03:36:22;6.60;99.90
25360;DHT22;13311;51.386;0.016;2023-01-26T03:41:23;6.50;99.90
25360;DHT22;13311;51.386;0.016;2023-01-26T03:46:42;6.50;99.90
25360;DHT22;13311;51.386;0.016;2023-01-26T03:52:01;6.60;99.90
25360;DHT22;13311;51.386;0.016;2023-01-26T03:57:21;6.50;99.90
25360;DHT22;13311;51.386;0.016;2023-01-26T04:02:21;6.40;99.90
25360;DHT22;13311;51.386;0.016;2023-01-26T04:07:41;6.30;99.90
25360;DHT22;13311;51.386;0.016;2023-01-26T04:13:00;6.20;99.90
25360;DHT22;13311;51.386;0.016;2023-01-26T04:18:19;6.30;99.90
25360;DHT22;13311;51.386;0.016;2023-01-26T04:23:39;6.30;99.90
25360;DHT22;13311;51.386;0.016;2023-01-26T04:28:40;6.30;99.90
25360;DHT22;13311;51.386;0.016;2023-01-26T04:33:42;6.20;99.90
25360;DHT22;13311;51.386;0.016;2023-01-26T04:38:42;6.30;99.90
25360;DHT22;13311;51.386;0.016;2023-01-26T04:43:43;6.20;99.90
25360;DHT22;13311;51.386;0.016;2023-01-26T04:48:44;6.20;99.90
25360;DHT22;13311;51.386;0.016;2023-01-26T04:53:46;6.10;99.90
25360;DHT22;13311;51.386;0.016;2023-01-26T04:58:47;6.20;99.90
25360;DHT22;13311;51.386;0.016;2023-01-26T05:03:48;6.20;99.90
25360;DHT22;13311;51.386;0.016;2023-01-26T05:08:49;6.20;99.90
25360;DHT22;13311;51.386;0.016;2023-01-26T05:13:50;6.30;99.90
25360;DHT22;13311;51.386;0.016;2023-01-26T05:18:50;6.30;99.90
25360;DHT22;13311;51.386;0.016;2023-01-26T05:23:52;6.30;99.90
25360;DHT22;13311;51.386;0.016;2023-01-26T05:28:53;6.50;99.90
25360;DHT22;13311;51.386;0.016;2023-01-26T05:33:54;6.50;99.90
25360;DHT22;13311;51.386;0.016;2023-01-26T05:38:54;6.50;99.90
25360;DHT22;13311;51.386;0.016;2023-01-26T05:43:55;6.60;99.90
25360;DHT22;13311;51.386;0.016;2023-01-26T05:48:56;6.60;99.90
25360;DHT22;13311;51.386;0.016;2023-01-26T05:53:56;6.60;99.90
25360;DHT22;13311;51.386;0.016;2023-01-26T05:58:57;6.90;99.90
25360;DHT22;13311;51.386;0.016;2023-01-26T06:03:58;6.90;99.90
25360;DHT22;13311;51.386;0.016;2023-01-26T06:08:59;7.00;99.90
25360;DHT22;13311;51.386;0.016;2023-01-26T06:14:00;7.00;99.90
25360;DHT22;13311;51.386;0.016;2023-01-26T06:19:00;7.00;99.90
25360;DHT22;13311;51.386;0.016;2023-01-26T06:24:01;7.00;99.90
25360;DHT22;13311;51.386;0.016;2023-01-26T06:29:02;7.20;99.90
25360;DHT22;13311;51.386;0.016;2023-01-26T06:34:03;7.10;99.90
25360;DHT22;13311;51.386;0.016;2023-01-26T06:39:05;7.10;99.90
25360;DHT22;13311;51.386;0.016;2023-01-26T06:44:07;7.20;99.90
25360;DHT22;13311;51.386;0.016;2023-01-26T06:49:08;7.20;99.90
25360;DHT22;13311;51.386;0.016;2023-01-26T06:54:10;7.20;99.90
25360;DHT22;13311;51.386;0.016;2023-01-26T06:59:12;7.40;99.90
25360;DHT22;13311;51.386;0.016;2023-01-26T07:04:14;7.40;99.90
25360;DHT22;13311;51.386;0.016;2023-01-26T07:09:15;7.40;99.90
25360;DHT22;13311;51.386;0.016;2023-01-26T07:14:16;7.30;99.90
25360;DHT22;13311;51.386;0.016;2023-01-26T07:19:17;7.40;99.90
25360;DHT22;13311;51.386;0.016;2023-01-26T07:24:17;7.40;99.90
25360;DHT22;13311;51.386;0.016;2023-01-26T07:29:21;7.50;99.90
25360;DHT22;13311;51.386;0.016;2023-01-26T07:34:22;7.40;99.90
25360;DHT22;13311;51.386;0.016;2023-01-26T07:39:22;7.30;99.90
25360;DHT22;13311;51.386;0.016;2023-01-26T07:44:23;7.30;99.90
25360;DHT22;13311;51.386;0.016;2023-01-26T07:49:24;7.30;99.90
25360;DHT22;13311;51.386;0.016;2023-01-26T07:54:25;7.40;99.90
25360;DHT22;13311;51.386;0.016;2023-01-26T07:59:25;7.40;99.90
25360;DHT22;13311;51.386;0.016;2023-01-26T08:04:26;7.40;99.90
25360;DHT22;13311;51.386;0.016;2023-01-26T08:09:27;7.40;99.90
25360;DHT22;13311;51.386;0.016;2023-01-26T08:14:28;7.30;99.90
25360;DHT22;13311;51.386;0.016;2023-01-26T08:19:28;7.40;99.90
25360;DHT22;13311;51.386;0.016;2023-01-26T08:24:29;7.40;99.90
25360;DHT22;13311;51.386;0.016;2023-01-26T08:29:30;7.50;99.90
25360;DHT22;13311;51.386;0.016;2023-01-26T08:34:30;7.60;99.90
25360;DHT22;13311;51.386;0.016;2023-01-26T08:39:31;7.70;99.90
25360;DHT22;13311;51.386;0.016;2023-01-26T08:44:32;7.70;99.90
25360;DHT22;13311;51.386;0.016;2023-01-26T08:49:32;7.70;99.90
25360;DHT22;13311;51.386;0.016;2023-01-26T08:54:33;7.70;99.90
25360;DHT22;13311;51.386;0.016;2023-01-26T08:59:34;7.70;99.90
25360;DHT22;13311;51.386;0.016;2023-01-26T09:04:35;7.60;99.90
25360;DHT22;13311;51.386;0.016;2023-01-26T09:09:36;7.60;99.90
25360;DHT22;13311;51.386;0.016;2023-01-26T09:14:36;7.70;99.90
25360;DHT22;13311;51.386;0.016;2023-01-26T09:19:37;7.80;99.90
25360;DHT22;13311;51.386;0.016;2023-01-26T09:24:38;7.90;99.90
25360;DHT22;13311;51.386;0.016;2023-01-26T09:29:39;7.90;99.90
25360;DHT22;13311;51.386;0.016;2023-01-26T09:34:39;7.90;99.90
25360;DHT22;13311;51.386;0.016;2023-01-26T09:39:40;8.00;99.90
25360;DHT22;13311;51.386;0.016;2023-01-26T09:50:12;8.10;99.90
25360;DHT22;13311;51.386;0.016;2023-01-26T09:55:26;8.00;99.90
25360;DHT22;13311;51.386;0.016;2023-01-26T10:00:42;8.00;99.90
25360;DHT22;13311;51.386;0.016;2023-01-26T10:05:58;8.20;99.90
25360;DHT22;13311;51.386;0.016;2023-01-26T10:11:18;8.20;99.90
25360;DHT22;13311;51.386;0.016;2023-01-26T10:16:25;8.10;99.90
25360;DHT22;13311;51.386;0.016;2023-01-26T10:21:34;8.10;99.90
25360;DHT22;13311;51.386;0.016;2023-01-26T10:26:38;8.10;99.90
25360;DHT22;13311;51.386;0.016;2023-01-26T10:31:38;8.10;99.90
25360;DHT22;13311;51.386;0.016;2023-01-26T10:36:40;8.00;99.90
25360;DHT22;13311;51.386;0.016;2023-01-26T10:42:00;8.00;99.90
25360;DHT22;13311;51.386;0.016;2023-01-26T10:47:19;8.10;99.90
25360;DHT22;13311;51.386;0.016;2023-01-26T10:52:23;8.30;99.90
25360;DHT22;13311;51.386;0.016;2023-01-26T10:57:29;8.20;99.90
25360;DHT22;13311;51.386;0.016;2023-01-26T11:02:34;8.20;99.90
25360;DHT22;13311;51.386;0.016;2023-01-26T11:07:38;8.30;99.90
25360;DHT22;13311;51.386;0.016;2023-01-26T11:12:40;8.40;99.90
25360;DHT22;13311;51.386;0.016;2023-01-26T11:23:11;8.50;99.90
25360;DHT22;13311;51.386;0.016;2023-01-26T11:28:28;8.50;99.90
25360;DHT22;13311;51.386;0.016;2023-01-26T11:39:43;8.50;99.90
25360;DHT22;13311;51.386;0.016;2023-01-26T11:45:19;8.50;99.90
25360;DHT22;13311;51.386;0.016;2023-01-26T12:01:24;8.70;99.90
25360;DHT22;13311;51.386;0.016;2023-01-26T12:06:35;8.70;99.90
25360;DHT22;13311;51.386;0.016;2023-01-26T12:22:32;8.80;99.90
25360;DHT22;13311;51.386;0.016;2023-01-26T12:27:41;8.70;99.90
25360;DHT22;13311;51.386;0.016;2023-01-26T12:32:45;8.60;99.90
25360;DHT22;13311;51.386;0.016;2023-01-26T12:38:01;8.70;99.90
25360;DHT22;13311;51.386;0.016;2023-01-26T12:43:21;8.80;99.90
25360;DHT22;13311;51.386;0.016;2023-01-26T12:48:36;8.80;99.90
25360;DHT22;13311;51.386;0.016;2023-01-26T12:53:59;9.00;99.90
25360;DHT22;13311;51.386;0.016;2023-01-26T12:59:15;9.00;99.90
25360;DHT22;13311;51.386;0.016;2023-01-26T13:04:18;9.30;99.90
25360;DHT22;13311;51.386;0.016;2023-01-26T13:09:24;9.40;99.90
25360;DHT22;13311;51.386;0.016;2023-01-26T13:24:42;9.50;99.90
25360;DHT22;13311;51.386;0.016;2023-01-26T13:29:51;9.70;99.90
25360;DHT22;13311;51.386;0.016;2023-01-26T13:34:59;9.50;99.90
25360;DHT22;13311;51.386;0.016;2023-01-26T13:40:12;9.60;99.90
25360;DHT22;13311;51.386;0.016;2023-01-26T13:45:44;9.50;99.90
25360;DHT22;13311;51.386;0.016;2023-01-26T13:50:59;9.50;99.90
25360;DHT22;13311;51.386;0.016;2023-01-26T13:56:02;9.70;99.90
25360;DHT22;13311;51.386;0.016;2023-01-26T14:01:10;9.70;99.90
25360;DHT22;13311;51.386;0.016;2023-01-26T14:06:16;9.70;99.90
25360;DHT22;13311;51.386;0.016;2023-01-26T14:11:21;9.70;99.90
25360;DHT22;13311;51.386;0.016;2023-01-26T14:16:33;9.60;99.90
25360;DHT22;13311;51.386;0.016;2023-01-26T14:27:00;9.40;99.90
25360;DHT22;13311;51.386;0.016;2023-01-26T14:32:03;9.60;99.90
25360;DHT22;13311;51.386;0.016;2023-01-26T14:37:06;9.50;99.90
25360;DHT22;13311;51.386;0.016;2023-01-26T14:42:19;9.70;99.90
25360;DHT22;13311;51.386;0.016;2023-01-26T14:47:24;9.70;99.90
25360;DHT22;13311;51.386;0.016;2023-01-26T14:52:31;9.70;99.90
25360;DHT22;13311;51.386;0.016;2023-01-26T14:57:33;9.80;99.90
25360;DHT22;13311;51.386;0.016;2023-01-26T15:02:35;9.90;99.90
25360;DHT22;13311;51.386;0.016;2023-01-26T15:08:00;10.00;99.90
25360;DHT22;13311;51.386;0.016;2023-01-26T15:13:24;9.80;99.90
25360;DHT22;13311;51.386;0.016;2023-01-26T15:18:31;9.70;99.90
25360;DHT22;13311;51.386;0.016;2023-01-26T15:23:35;9.70;99.90
25360;DHT22;13311;51.386;0.016;2023-01-26T15:28:37;9.50;99.90
25360;DHT22;13311;51.386;0.016;2023-01-26T15:38:45;9.40;99.90
25360;DHT22;13311;51.386;0.016;2023-01-26T15:43:47;9.40;99.90
25360;DHT22;13311;51.386;0.016;2023-01-26T15:48:47;9.40;99.90
25360;DHT22;13311;51.386;0.016;2023-01-26T15:53:48;9.40;99.90
25360;DHT22;13311;51.386;0.016;2023-01-26T15:58:50;9.40;99.90
25360;DHT22;13311;51.386;0.016;2023-01-26T16:03:51;9.40;99.90
25360;DHT22;13311;51.386;0.016;2023-01-26T16:08:52;9.40;99.90
25360;DHT22;13311;51.386;0.016;2023-01-26T16:13:54;9.30;99.90
25360;DHT22;13311;51.386;0.016;2023-01-26T16:18:55;9.40;99.90
25360;DHT22;13311;51.386;0.016;2023-01-26T16:23:56;9.30;99.90
25360;DHT22;13311;51.386;0.016;2023-01-26T16:28:57;9.50;99.90
25360;DHT22;13311;51.386;0.016;2023-01-26T16:33:59;9.40;99.90
25360;DHT22;13311;51.386;0.016;2023-01-26T16:39:00;9.30;99.90
25360;DHT22;13311;51.386;0.016;2023-01-26T16:44:01;9.40;99.90
25360;DHT22;13311;51.386;0.016;2023-01-26T16:49:02;9.20;99.90
25360;DHT22;13311;51.386;0.016;2023-01-26T16:54:03;9.10;99.90
25360;DHT22;13311;51.386;0.016;2023-01-26T16:59:04;8.90;99.90
25360;DHT22;13311;51.386;0.016;2023-01-26T17:04:05;8.90;99.90
25360;DHT22;13311;51.386;0.016;2023-01-26T17:09:06;8.90;99.90
25360;DHT22;13311;51.386;0.016;2023-01-26T17:14:08;8.90;99.90
25360;DHT22;13311;51.386;0.016;2023-01-26T17:19:11;8.90;99.90
25360;DHT22;13311;51.386;0.016;2023-01-26T17:24:11;8.80;99.90
25360;DHT22;13311;51.386;0.016;2023-01-26T17:29:12;8.90;99.90
25360;DHT22;13311;51.386;0.016;2023-01-26T17:34:13;8.80;99.90
25360;DHT22;13311;51.386;0.016;2023-01-26T17:39:14;8.80;99.90
25360;DHT22;13311;51.386;0.016;2023-01-26T17:44:17;8.80;99.90
25360;DHT22;13311;51.386;0.016;2023-01-26T17:49:18;8.80;99.90
25360;DHT22;13311;51.386;0.016;2023-01-26T17:54:20;8.80;99.90
25360;DHT22;13311;51.386;0.016;2023-01-26T17:59:21;8.90;99.90
25360;DHT22;13311;51.386;0.016;2023-01-26T18:04:22;8.70;99.90
25360;DHT22;13311;51.386;0.016;2023-01-26T18:09:23;8.70;99.90
25360;DHT22;13311;51.386;0.016;2023-01-26T18:14:24;8.70;99.90
25360;DHT22;13311;51.386;0.016;2023-01-26T18:19:25;8.80;99.90
25360;DHT22;13311;51.386;0.016;2023-01-26T18:24:25;8.70;99.90
25360;DHT22;13311;51.386;0.016;2023-01-26T18:29:26;8.70;99.90
25360;DHT22;13311;51.386;0.016;2023-01-26T18:34:27;8.70;99.90
25360;DHT22;13311;51.386;0.016;2023-01-26T18:39:28;8.70;99.90
25360;DHT22;13311;51.386;0.016;2023-01-26T18:44:29;8.70;99.90
25360;DHT22;13311;51.386;0.016;2023-01-26T18:49:30;8.70;99.90
25360;DHT22;13311;51.386;0.016;2023-01-26T18:54:30;8.80;99.90
25360;DHT22;13311;51.386;0.016;2023-01-26T18:59:31;8.80;99.90
25360;DHT22;13311;51.386;0.016;2023-01-26T19:04:33;8.70;99.90
25360;DHT22;13311;51.386;0.016;2023-01-26T19:09:34;8.70;99.90
25360;DHT22;13311;51.386;0.016;2023-01-26T19:14:35;8.50;99.90
25360;DHT22;13311;51.386;0.016;2023-01-26T19:19:36;8.50;99.90
25360;DHT22;13311;51.386;0.016;2023-01-26T19:24:37;8.70;99.90
25360;DHT22;13311;51.386;0.016;2023-01-26T19:29:38;8.70;99.90
25360;DHT22;13311;51.386;0.016;2023-01-26T19:34:39;8.70;99.90
25360;DHT22;13311;51.386;0.016;2023-01-26T19:39:39;8.60;99.90
25360;DHT22;13311;51.386;0.016;2023-01-26T19:44:40;8.60;99.90
25360;DHT22;13311;51.386;0.016;2023-01-26T19:49:41;8.40;99.90
25360;DHT22;13311;51.386;0.016;2023-01-26T19:54:42;8.50;99.90
25360;DHT22;13311;51.386;0.016;2023-01-26T19:59:43;8.50;99.90
25360;DHT22;13311;51.386;0.016;2023-01-26T20:04:44;8.40;99.90
25360;DHT22;13311;51.386;0.016;2023-01-26T20:09:45;8.40;99.90
25360;DHT22;13311;51.386;0.016;2023-01-26T20:14:45;8.30;99.90
25360;DHT22;13311;51.386;0.016;2023-01-26T20:19:48;8.40;99.90
25360;DHT22;13311;51.386;0.016;2023-01-26T20:24:49;8.40;99.90
25360;DHT22;13311;51.386;0.016;2023-01-26T20:29:49;8.40;99.90
25360;DHT22;13311;51.386;0.016;2023-01-26T20:34:50;8.40;99.90
25360;DHT22;13311;51.386;0.016;2023-01-26T20:39:51;8.50;99.90
25360;DHT22;13311;51.386;0.016;2023-01-26T20:44:52;8.50;99.90
25360;DHT22;13311;51.386;0.016;2023-01-26T20:49:54;8.50;99.90
25360;DHT22;13311;51.386;0.016;2023-01-26T20:54:55;8.40;99.90
25360;DHT22;13311;51.386;0.016;2023-01-26T20:59:56;8.20;99.90
25360;DHT22;13311;51.386;0.016;2023-01-26T21:04:57;8.30;99.90
25360;DHT22;13311;51.386;0.016;2023-01-26T21:09:58;8.40;99.90
25360;DHT22;13311;51.386;0.016;2023-01-26T21:14:59;8.40;99.90
25360;DHT22;13311;51.386;0.016;2023-01-26T21:20:00;8.40;99.90
25360;DHT22;13311;51.386;0.016;2023-01-26T21:25:00;8.50;99.90
25360;DHT22;13311;51.386;0.016;2023-01-26T21:30:01;8.60;99.90
25360;DHT22;13311;51.386;0.016;2023-01-26T21:35:03;8.50;99.90
25360;DHT22;13311;51.386;0.016;2023-01-26T21:40:04;8.40;99.90
25360;DHT22;13311;51.386;0.016;2023-01-26T21:45:06;8.50;99.90
25360;DHT22;13311;51.386;0.016;2023-01-26T21:50:26;8.50;99.90
25360;DHT22;13311;51.386;0.016;2023-01-26T21:55:47;8.60;99.90
25360;DHT22;13311;51.386;0.016;2023-01-26T22:00:47;8.50;99.90
25360;DHT22;13311;51.386;0.016;2023-01-26T22:05:51;8.40;99.90
25360;DHT22;13311;51.386;0.016;2023-01-26T22:10:56;8.40;99.90
25360;DHT22;13311;51.386;0.016;2023-01-26T22:16:00;8.40;99.90
25360;DHT22;13311;51.386;0.016;2023-01-26T22:21:01;8.30;99.90
25360;DHT22;13311;51.386;0.016;2023-01-26T22:26:14;8.30;99.90
25360;DHT22;13311;51.386;0.016;2023-01-26T22:31:17;8.40;99.90
25360;DHT22;13311;51.386;0.016;2023-01-26T22:36:19;8.40;99.90
25360;DHT22;13311;51.386;0.016;2023-01-26T22:41:23;8.20;99.90
25360;DHT22;13311;51.386;0.016;2023-01-26T22:46:27;8.20;99.90
25360;DHT22;13311;51.386;0.016;2023-01-26T22:51:31;8.40;99.90
25360;DHT22;13311;51.386;0.016;2023-01-26T22:56:32;8.40;99.90
25360;DHT22;13311;51.386;0.016;2023-01-26T23:01:33;8.40;99.90
25360;DHT22;13311;51.386;0.016;2023-01-26T23:06:34;8.20;99.90
25360;DHT22;13311;51.386;0.016;2023-01-26T23:11:34;8.20;99.90
25360;DHT22;13311;51.386;0.016;2023-01-26T23:16:35;8.10;99.90
25360;DHT22;13311;51.386;0.016;2023-01-26T23:21:36;8.10;99.90
25360;DHT22;13311;51.386;0.016;2023-01-26T23:26:37;8.00;99.90
25360;DHT22;13311;51.386;0.016;2023-01-26T23:31:37;7.90;99.90
25360;DHT22;13311;51.386;0.016;2023-01-26T23:36:38;8.00;99.90
25360;DHT22;13311;51.386;0.016;2023-01-26T23:41:39;8.00;99.90
25360;DHT22;13311;51.386;0.016;2023-01-26T23:46:40;8.00;99.90
25360;DHT22;13311;51.386;0.016;2023-01-26T23:51:40;7.90;99.90
25360;DHT22;13311;51.386;0.016;2023-01-26T23:56:41;7.90;99.90
